createdAt,value
2019-05-15T00:02:58.822Z,3.93
2019-05-15T00:08:02.547Z,3.93
2019-05-15T00:13:08.983Z,3.80
2019-05-15T00:18:12.575Z,3.87
2019-05-15T00:23:18.319Z,3.67
2019-05-15T00:28:22.582Z,4.13
2019-05-15T00:33:28.629Z,4.23
2019-05-15T00:38:32.331Z,4.13
2019-05-15T00:43:38.509Z,4.03
2019-05-15T00:48:42.099Z,4.63
2019-05-15T00:53:48.165Z,3.93
2019-05-15T00:58:51.761Z,4.37
2019-05-15T01:03:58.430Z,3.83
2019-05-15T01:09:01.779Z,3.77
2019-05-15T01:14:05.804Z,3.83
2019-05-15T01:19:09.931Z,5.10
2019-05-15T01:24:13.979Z,4.50
2019-05-15T01:29:18.344Z,4.17
2019-05-15T01:34:23.468Z,3.57
2019-05-15T01:39:29.099Z,3.93
2019-05-15T01:44:33.300Z,4.00
2019-05-15T01:49:38.413Z,3.70
2019-05-15T02:00:03.320Z,3.90
2019-05-15T02:05:11.914Z,4.07
2019-05-15T02:10:22.598Z,4.27
2019-05-15T02:15:31.923Z,4.87
2019-05-15T02:20:38.619Z,4.43
2019-05-15T02:25:42.274Z,4.40
2019-05-15T02:30:50.022Z,5.20
2019-05-15T02:35:59.540Z,4.20
2019-05-15T02:41:11.602Z,5.50
2019-05-15T02:46:20.065Z,5.27
2019-05-15T02:51:24.909Z,5.97
2019-05-15T02:56:32.749Z,5.97
2019-05-15T03:01:42.729Z,6.27
2019-05-15T03:06:51.055Z,6.10
2019-05-15T03:11:59.646Z,6.33
2019-05-15T03:17:09.765Z,7.10
2019-05-15T03:22:22.315Z,6.13
2019-05-15T03:27:34.947Z,6.47
2019-05-15T03:32:53.028Z,7.77
2019-05-15T03:37:55.395Z,7.37
2019-05-15T03:43:00.009Z,7.77
2019-05-15T03:48:11.377Z,7.33
2019-05-15T03:53:19.217Z,7.30
2019-05-15T03:58:28.819Z,8.13
2019-05-15T04:03:38.995Z,7.87
2019-05-15T04:08:49.824Z,8.03
2019-05-15T04:13:59.996Z,9.20
2019-05-15T04:19:10.027Z,8.00
2019-05-15T04:24:19.254Z,8.87
2019-05-15T04:29:23.655Z,9.87
2019-05-15T04:34:33.036Z,8.83
2019-05-15T04:39:41.692Z,9.17
2019-05-15T04:44:49.676Z,9.40
2019-05-15T04:49:54.860Z,8.80
2019-05-15T04:55:02.455Z,8.30
2019-05-15T05:00:11.367Z,9.30
2019-05-15T05:05:20.688Z,9.93
2019-05-15T05:10:29.856Z,8.33
2019-05-15T05:15:39.487Z,10.27
2019-05-15T05:20:44.991Z,9.57
2019-05-15T05:25:57.971Z,9.10
2019-05-15T05:31:14.315Z,9.53
2019-05-15T05:36:28.006Z,9.33
2019-05-15T05:41:44.327Z,8.97
2019-05-15T05:46:54.447Z,8.67
2019-05-15T05:52:04.316Z,8.70
2019-05-15T05:57:09.927Z,9.43
2019-05-15T06:02:18.558Z,8.87
2019-05-15T06:07:23.006Z,8.40
2019-05-15T06:12:29.999Z,8.30
2019-05-15T06:17:41.966Z,8.43
2019-05-15T06:22:57.996Z,9.23
2019-05-15T06:28:10.002Z,7.90
2019-05-15T06:33:20.021Z,8.60
2019-05-15T06:38:31.841Z,8.07
2019-05-15T06:43:41.538Z,8.43
2019-05-15T06:48:45.751Z,8.67
2019-05-15T06:53:58.186Z,9.13
2019-05-15T06:59:09.068Z,8.43
2019-05-15T07:04:18.290Z,9.23
2019-05-15T07:09:30.660Z,9.30
2019-05-15T07:14:39.127Z,8.70
2019-05-15T07:19:48.813Z,8.80
2019-05-15T07:24:55.208Z,8.93
2019-05-15T07:30:08.038Z,9.23
2019-05-15T07:35:16.139Z,8.50
2019-05-15T07:40:24.916Z,8.70
2019-05-15T07:45:35.243Z,9.47
2019-05-15T07:50:42.400Z,9.23
2019-05-15T07:55:51.606Z,9.97
2019-05-15T08:01:05.625Z,8.47
2019-05-15T08:06:10.640Z,9.47
2019-05-15T08:11:20.773Z,9.90
2019-05-15T08:16:24.679Z,9.40
2019-05-15T08:21:33.187Z,9.27
2019-05-15T08:26:45.302Z,9.67
2019-05-15T08:31:51.020Z,9.77
2019-05-15T08:36:59.563Z,10.67
2019-05-15T08:42:07.967Z,10.43
2019-05-15T08:47:12.876Z,9.37
2019-05-15T08:52:18.978Z,10.40
2019-05-15T08:57:25.300Z,8.87
2019-05-15T09:02:29.399Z,10.97
2019-05-15T09:07:33.618Z,9.93
2019-05-15T09:12:43.567Z,10.07
2019-05-15T09:18:08.084Z,9.97
2019-05-15T09:23:09.926Z,10.23
2019-05-15T09:28:18.757Z,10.27
2019-05-15T09:33:25.182Z,9.63
2019-05-15T09:38:30.334Z,11.67
2019-05-15T09:43:38.534Z,9.80
2019-05-15T09:48:51.573Z,9.87
2019-05-15T09:53:59.400Z,10.57
2019-05-15T09:59:08.917Z,10.97
2019-05-15T10:04:14.000Z,10.47
2019-05-15T10:09:19.164Z,10.30
2019-05-15T10:14:26.349Z,10.73
2019-05-15T10:19:31.083Z,11.20
2019-05-15T10:24:35.259Z,10.73
2019-05-15T10:29:43.622Z,10.07
2019-05-15T10:34:52.454Z,10.07
2019-05-15T10:39:59.617Z,10.83
2019-05-15T10:45:08.797Z,9.97
2019-05-15T10:50:18.957Z,9.97
2019-05-15T10:55:24.395Z,10.77
2019-05-15T11:00:29.404Z,9.80
2019-05-15T11:05:41.845Z,10.03
2019-05-15T11:10:44.577Z,10.23
2019-05-15T11:15:49.631Z,10.27
2019-05-15T11:20:54.817Z,10.50
2019-05-15T11:26:04.563Z,10.53
2019-05-15T11:31:10.561Z,10.90
2019-05-15T11:36:18.345Z,9.43
2019-05-15T11:41:21.520Z,9.57
2019-05-15T11:46:29.336Z,9.60
2019-05-15T11:51:42.037Z,9.80
2019-05-15T11:56:49.063Z,9.73
2019-05-15T12:01:58.040Z,9.17
2019-05-15T12:07:08.691Z,9.07
2019-05-15T12:12:17.934Z,9.00
2019-05-15T12:17:23.035Z,9.53
2019-05-15T12:22:31.423Z,9.63
2019-05-15T12:27:40.085Z,9.20
2019-05-15T12:32:52.479Z,8.47
2019-05-15T12:37:59.270Z,9.50
2019-05-15T13:03:49.526Z,10.13
2019-05-15T13:08:59.633Z,9.90
2019-05-15T13:14:04.414Z,9.43
2019-05-15T13:19:10.790Z,9.03
2019-05-15T13:24:20.711Z,8.60
2019-05-15T13:29:28.768Z,8.00
2019-05-15T13:34:32.106Z,8.77
2019-05-15T13:39:42.664Z,8.63
2019-05-15T13:44:53.416Z,8.77
2019-05-15T13:49:59.151Z,9.00
2019-05-15T13:55:10.295Z,9.23
2019-05-15T14:00:23.163Z,7.93
2019-05-15T14:05:33.093Z,9.37
2019-05-15T14:10:48.743Z,9.03
2019-05-15T14:15:58.982Z,7.77
2019-05-15T14:21:04.335Z,8.93
2019-05-15T14:26:17.762Z,8.43
2019-05-15T14:31:23.025Z,8.17
2019-05-15T14:36:36.192Z,9.47
2019-05-15T14:41:51.128Z,8.77
2019-05-15T14:47:03.262Z,7.70
2019-05-15T14:52:22.103Z,8.00
2019-05-15T14:57:33.822Z,8.47
2019-05-15T15:02:39.160Z,8.17
2019-05-15T15:07:49.364Z,7.70
2019-05-15T15:12:58.606Z,8.60
2019-05-15T15:18:09.986Z,7.20
2019-05-15T15:23:16.810Z,6.97
2019-05-15T15:28:28.002Z,7.20
2019-05-15T15:33:32.853Z,7.63
2019-05-15T15:38:45.287Z,7.03
2019-05-15T15:43:58.203Z,7.13
2019-05-15T15:49:16.948Z,7.00
2019-05-15T15:54:33.335Z,7.83
2019-05-15T15:59:49.110Z,6.30
2019-05-15T16:05:09.050Z,7.43
2019-05-15T16:10:25.000Z,6.27
2019-05-15T16:15:32.035Z,6.70
2019-05-15T16:20:48.580Z,6.30
2019-05-15T16:26:03.322Z,6.53
2019-05-15T16:31:18.615Z,6.17
2019-05-15T16:36:25.324Z,6.00
2019-05-15T16:41:41.371Z,5.80
2019-05-15T16:47:02.394Z,5.50
2019-05-15T16:52:16.211Z,5.97
2019-05-15T16:57:32.925Z,5.77
2019-05-15T17:03:08.547Z,5.47
2019-05-15T17:08:09.874Z,5.80
2019-05-15T17:13:30.623Z,6.10
2019-05-15T17:18:55.382Z,5.07
2019-05-15T17:24:17.840Z,5.57
2019-05-15T17:29:40.285Z,6.10
2019-05-15T17:34:58.941Z,7.13
2019-05-15T17:40:13.450Z,7.63
2019-05-15T17:45:33.324Z,7.47
2019-05-15T17:50:48.694Z,5.40
2019-05-15T17:55:48.703Z,6.10
2019-05-15T18:00:59.653Z,6.00
2019-05-15T18:06:10.542Z,6.77
2019-05-15T18:11:18.808Z,6.00
2019-05-15T18:16:31.490Z,6.30
2019-05-15T18:21:43.879Z,5.77
2019-05-15T18:26:58.478Z,6.17
2019-05-15T18:32:03.835Z,6.90
2019-05-15T18:37:14.822Z,6.47
2019-05-15T18:42:25.869Z,6.50
2019-05-15T18:47:31.480Z,8.07
2019-05-15T18:52:38.586Z,5.73
2019-05-15T18:57:48.660Z,6.40
2019-05-15T19:02:59.633Z,5.93
2019-05-15T19:08:08.487Z,5.70
2019-05-15T19:13:16.425Z,5.40
2019-05-15T19:18:27.918Z,6.27
2019-05-15T19:23:47.859Z,5.73
2019-05-15T19:28:59.147Z,6.63
2019-05-15T19:34:08.524Z,6.30
2019-05-15T19:39:19.014Z,6.83
2019-05-15T19:44:28.354Z,7.43
2019-05-15T19:49:37.841Z,7.60
2019-05-15T19:54:48.131Z,7.50
2019-05-15T19:59:58.302Z,7.77
2019-05-15T20:05:06.029Z,8.30
2019-05-15T20:10:14.855Z,6.27
2019-05-15T20:15:19.591Z,6.57
2019-05-15T20:20:29.104Z,7.07
2019-05-15T20:25:38.453Z,7.97
2019-05-15T20:30:44.174Z,47.63
2019-05-15T20:35:53.143Z,25.03
2019-05-15T20:40:59.676Z,23.97
2019-05-15T20:46:03.118Z,22.87
2019-05-15T20:51:08.619Z,11.67
2019-05-15T20:56:12.782Z,7.20
2019-05-15T21:01:22.342Z,7.53
2019-05-15T21:06:28.923Z,7.93
2019-05-15T21:11:39.780Z,6.60
2019-05-15T21:16:48.485Z,6.90
2019-05-15T21:21:57.913Z,7.50
2019-05-15T21:27:04.949Z,7.60
2019-05-15T21:32:11.746Z,7.07
2019-05-15T21:37:19.113Z,7.27
2019-05-15T21:42:26.803Z,6.47
2019-05-15T21:47:38.612Z,6.00
2019-05-15T21:52:49.681Z,5.83
2019-05-15T21:57:57.752Z,7.53
2019-05-15T22:03:05.369Z,5.87
2019-05-15T22:08:13.591Z,6.50
2019-05-15T22:13:22.454Z,6.40
2019-05-15T22:18:32.625Z,6.83
2019-05-15T22:23:41.126Z,6.90
2019-05-15T22:28:53.453Z,6.97
2019-05-15T22:34:01.742Z,6.73
2019-05-15T22:39:08.666Z,6.53
2019-05-15T22:44:19.176Z,6.57
2019-05-15T22:49:24.473Z,7.03
2019-05-15T22:54:32.611Z,7.20
2019-05-15T22:59:40.742Z,7.47
2019-05-15T23:04:48.053Z,7.20
2019-05-15T23:09:58.325Z,8.23
2019-05-15T23:15:08.401Z,7.47
2019-05-15T23:20:17.838Z,8.23
2019-05-15T23:25:28.964Z,7.93
2019-05-15T23:30:34.485Z,8.43
2019-05-15T23:35:41.633Z,8.10
2019-05-15T23:40:49.122Z,8.13
2019-05-15T23:45:58.872Z,7.30
2019-05-15T23:51:03.386Z,8.73
2019-05-15T23:56:13.325Z,7.47
